Time;durP1;ratioP1;P1;durP2;ratioP2;P2;SDS_P1;SDS_P2;PMS_P1;PMS_P2;Temp;Humidity;BMP_temperature;BMP_pressure;BME280_temperature;BME280_humidity;BME280_pressure;Samples;Min_cycle;Max_cycle;Signal;HPM_P1;HPM_P2
2022/08/08 00:01:48;;;;;;;;;;;;;;;22.22;52.54;99461.06;5072609;28;886;-66
2022/08/08 00:04:29;;;;;;;;;;;;;;;22.28;52.24;99474.47;5072483;28;1042;-68
2022/08/08 00:07:02;;;;;;;;;;;;;;;22.32;51.77;99472.97;5055819;28;1535;-67
2022/08/08 00:09:43;;;;;;;;;;;;;;;22.32;51.74;99466.56;5072410;28;891;-67
2022/08/08 00:12:12;;;;;;;;;;;;;;;22.30;51.68;99469.13;5072457;28;1062;-67
2022/08/08 00:15:07;;;;;;;;;;;;;;;22.29;51.74;99473.19;5072297;28;896;-68
2022/08/08 00:17:39;;;;;;;;;;;;;;;22.28;52.05;99482.91;5069566;28;1072;-67
2022/08/08 00:20:08;;;;;;;;;;;;;;;22.28;52.00;99480.09;5055432;28;1898;-67
2022/08/08 00:22:44;;;;;;;;;;;;;;;22.26;51.98;99479.81;5072075;28;866;-68
2022/08/08 00:25:17;;;;;;;;;;;;;;;22.21;52.29;99486.84;5106956;28;928;-66
2022/08/08 00:27:42;;;;;;;;;;;;;;;22.15;52.50;99492.44;5114818;28;855;-66
2022/08/08 00:30:16;;;;;;;;;;;;;;;22.08;52.61;99484.38;5114861;28;827;-66
2022/08/08 00:32:46;;;;;;;;;;;;;;;22.08;52.72;99475.94;5114955;28;870;-66
2022/08/08 00:35:26;;;;;;;;;;;;;;;22.08;52.65;99472.34;5096484;28;1487;-67
2022/08/08 00:38:03;;;;;;;;;;;;;;;22.08;52.87;99461.09;5114731;28;886;-66
2022/08/08 00:40:49;;;;;;;;;;;;;;;22.16;52.66;99479.13;5114566;28;1947;-66
2022/08/08 00:55:41;;;;;;;;;;;;;;;22.10;52.58;99464.97;5114702;28;602;-65
2022/08/08 00:58:20;;;;;;;;;;;;;;;22.13;52.54;99466.81;5134245;27;1967;-66
2022/08/08 01:00:56;;;;;;;;;;;;;;;22.18;52.73;99473.78;5126436;27;933;-65
2022/08/08 01:12:52;;;;;;;;;;;;;;;22.36;52.44;99475.56;5134884;27;724;-65
2022/08/08 01:15:39;;;;;;;;;;;;;;;22.31;52.64;99479.88;5071217;28;967;-66
2022/08/08 01:18:23;;;;;;;;;;;;;;;22.30;52.70;99489.59;5071063;28;1141;-66
2022/08/08 01:21:03;;;;;;;;;;;;;;;22.25;53.79;99489.50;5071243;28;924;-67
2022/08/08 01:24:02;;;;;;;;;;;;;;;22.21;54.03;99486.84;5071062;28;816;-67
2022/08/08 01:26:29;;;;;;;;;;;;;;;22.12;55.17;99487.75;5048390;28;1240;-67
2022/08/08 01:41:16;;;;;;;;;;;;;;;21.71;60.19;99495.34;5070800;28;666;-67
2022/08/08 01:43:57;;;;;;;;;;;;;;;21.69;61.06;99495.81;5070912;28;895;-67
2022/08/08 01:46:40;;;;;;;;;;;;;;;21.67;62.04;99501.16;5070622;28;1048;-66
2022/08/08 01:49:15;;;;;;;;;;;;;;;21.65;62.73;99491.66;5070552;28;897;-66
2022/08/08 01:51:44;;;;;;;;;;;;;;;21.59;63.51;99500.00;5076541;27;1016;-67
2022/08/08 01:54:10;;;;;;;;;;;;;;;21.58;63.78;99492.81;5134144;27;906;-66
2022/08/08 02:08:49;;;;;;;;;;;;;;;21.18;68.52;99502.59;5133795;27;668;-65
2022/08/08 02:11:24;;;;;;;;;;;;;;;21.17;68.82;99504.63;5132235;27;1283;-66
2022/08/08 02:13:51;;;;;;;;;;;;;;;21.19;69.66;99499.28;5132733;27;834;-66
2022/08/08 02:19:39;;;;;;;;;;;;;;;21.13;71.06;99506.06;5133520;27;1961;-66
2022/08/08 02:34:50;;;;;;;;;;;;;;;21.06;74.09;99503.63;5133343;27;614;-67
2022/08/08 02:37:30;;;;;;;;;;;;;;;21.06;74.49;99501.63;5133075;27;846;-67
2022/08/08 02:40:03;;;;;;;;;;;;;;;21.05;74.81;99496.47;5131483;27;1949;-65
2022/08/08 02:45:49;;;;;;;;;;;;;;;20.96;75.57;99503.72;5123421;27;1253;-65
2022/08/08 02:48:43;;;;;;;;;;;;;;;20.96;75.44;99500.13;5132694;27;831;-65
2022/08/08 02:51:25;;;;;;;;;;;;;;;20.91;75.80;99510.00;5129285;27;1155;-67
2022/08/08 02:53:52;;;;;;;;;;;;;;;20.89;75.95;99500.50;5132666;27;811;-65
2022/08/08 02:56:31;;;;;;;;;;;;;;;20.85;76.26;99499.94;5132383;27;1056;-66
2022/08/08 02:59:16;;;;;;;;;;;;;;;20.85;76.76;99511.94;5132697;27;1971;-67
2022/08/08 03:02:01;;;;;;;;;;;;;;;20.91;76.50;99510.00;5132527;27;842;-65
2022/08/08 03:04:40;;;;;;;;;;;;;;;20.87;76.50;99508.63;5132610;27;839;-66
2022/08/08 03:07:26;;;;;;;;;;;;;;;20.82;77.20;99512.88;5132529;27;803;-66
2022/08/08 03:09:52;;;;;;;;;;;;;;;20.83;77.53;99519.28;5132688;27;846;-65
2022/08/08 03:12:21;;;;;;;;;;;;;;;20.84;77.36;99518.78;5132542;27;823;-66
2022/08/08 03:14:53;;;;;;;;;;;;;;;20.83;77.61;99519.28;5113949;28;1218;-66
2022/08/08 03:17:41;;;;;;;;;;;;;;;20.80;77.64;99515.38;5132415;28;836;-66
2022/08/08 03:20:10;;;;;;;;;;;;;;;20.77;77.97;99522.75;5132279;28;1985;-66
2022/08/08 03:25:40;;;;;;;;;;;;;;;20.82;78.00;99510.06;5134667;27;690;-66
2022/08/08 03:28:27;;;;;;;;;;;;;;;20.79;78.52;99519.47;5136615;27;804;-66
2022/08/08 03:30:54;;;;;;;;;;;;;;;20.80;78.53;99523.81;5136620;27;815;-65
2022/08/08 03:33:20;;;;;;;;;;;;;;;20.82;78.71;99512.09;5136488;27;855;-66
2022/08/08 03:35:48;;;;;;;;;;;;;;;20.89;78.71;99528.59;5136538;27;815;-66
2022/08/08 03:38:20;;;;;;;;;;;;;;;20.93;78.17;99532.78;5136293;27;1887;-66
2022/08/08 03:53:02;;;;;;;;;;;;;;;20.99;78.10;99541.31;5136510;27;641;-66
2022/08/08 03:55:30;;;;;;;;;;;;;;;21.03;77.77;99539.09;5136088;27;803;-66
2022/08/08 03:57:56;;;;;;;;;;;;;;;21.05;77.72;99541.41;5135708;27;1305;-68
2022/08/08 04:00:28;;;;;;;;;;;;;;;21.07;77.78;99536.09;5135881;27;1963;-65
2022/08/08 04:02:58;;;;;;;;;;;;;;;21.09;77.64;99561.69;5135993;27;909;-66
2022/08/08 04:05:27;;;;;;;;;;;;;;;21.10;77.78;99555.59;5135886;27;1033;-65
2022/08/08 04:07:54;;;;;;;;;;;;;;;21.14;77.61;99553.34;5136229;27;910;-65
2022/08/08 04:16:25;;;;;;;;;;;;;;;21.26;77.37;99553.56;5135775;27;618;-65
2022/08/08 04:31:03;;;;;;;;;;;;;;;21.58;75.67;99566.72;5135809;27;641;-66
2022/08/08 04:33:31;;;;;;;;;;;;;;;21.65;75.29;99559.91;5135294;27;1024;-69
2022/08/08 04:39:27;;;;;;;;;;;;;;;21.81;74.60;99569.91;5135226;27;1901;-67
2022/08/08 04:41:53;;;;;;;;;;;;;;;21.87;74.46;99558.75;5135112;27;840;-65
2022/08/08 04:44:21;;;;;;;;;;;;;;;21.94;74.09;99569.63;5135196;27;839;-65
2022/08/08 04:46:48;;;;;;;;;;;;;;;22.03;73.36;99566.69;5134956;27;831;-66
2022/08/08 04:49:14;;;;;;;;;;;;;;;22.12;73.29;99571.41;5135049;27;807;-68
2022/08/08 05:22:30;;;;;;;;;;;;;;;23.17;67.68;99609.25;4952977;29;1453;-66
2022/08/08 05:24:56;;;;;;;;;;;;;;;23.25;67.18;99613.19;4955292;29;852;-65
2022/08/08 05:27:22;;;;;;;;;;;;;;;23.46;66.53;99616.78;4955172;29;895;-64
2022/08/08 05:29:49;;;;;;;;;;;;;;;23.64;65.69;99612.84;4955161;29;864;-64
2022/08/08 05:32:19;;;;;;;;;;;;;;;23.77;64.65;99616.09;4955077;29;895;-65
2022/08/08 05:37:53;;;;;;;;;;;;;;;24.28;63.47;99610.09;4954883;29;1165;-64
2022/08/08 05:40:28;;;;;;;;;;;;;;;24.65;61.19;99627.84;4955181;29;1910;-63
2022/08/08 05:43:04;;;;;;;;;;;;;;;24.97;59.65;99615.66;4955143;29;880;-65
2022/08/08 05:45:34;;;;;;;;;;;;;;;25.34;58.29;99615.56;4954843;29;805;-64
2022/08/08 05:48:04;;;;;;;;;;;;;;;26.02;56.31;99607.22;4954030;28;872;-64
2022/08/08 05:50:31;;;;;;;;;;;;;;;26.22;55.17;99620.31;4954312;29;840;-64
2022/08/08 05:52:59;;;;;;;;;;;;;;;26.45;54.24;99610.50;4954718;29;930;-65
2022/08/08 05:55:27;;;;;;;;;;;;;;;26.52;53.57;99609.22;4953603;29;1285;-65
2022/08/08 05:57:56;;;;;;;;;;;;;;;26.52;53.04;99620.53;4954504;29;1052;-65
2022/08/08 06:00:23;;;;;;;;;;;;;;;26.58;52.87;99621.34;4937162;29;1887;-65
2022/08/08 06:03:10;;;;;;;;;;;;;;;26.66;52.58;99611.00;4954548;29;856;-65
2022/08/08 06:05:47;;;;;;;;;;;;;;;26.96;51.86;99624.59;4954543;29;865;-64
2022/08/08 06:08:15;;;;;;;;;;;;;;;27.37;49.88;99617.47;4954408;29;912;-67
2022/08/08 06:11:03;;;;;;;;;;;;;;;27.72;49.16;99619.59;4954378;29;1100;-64
2022/08/08 06:13:36;;;;;;;;;;;;;;;28.11;48.00;99624.22;4954312;29;924;-66
2022/08/08 06:16:11;;;;;;;;;;;;;;;28.40;46.91;99628.34;4936628;29;1417;-65
2022/08/08 06:31:28;;;;;;;;;;;;;;;29.95;41.97;99629.59;4951788;29;1220;-65
2022/08/08 06:34:00;;;;;;;;;;;;;;;30.17;41.53;99634.94;4954020;29;872;-64
2022/08/08 06:39:29;;;;;;;;;;;;;;;30.44;40.32;99635.00;4953870;29;1942;-64
2022/08/08 06:41:57;;;;;;;;;;;;;;;30.85;40.51;99650.81;4953920;29;825;-63
2022/08/08 06:50:40;;;;;;;;;;;;;;;31.62;38.50;99660.44;4953752;29;600;-65
2022/08/08 06:53:08;;;;;;;;;;;;;;;31.72;39.08;99647.97;4953695;29;939;-65
2022/08/08 06:55:35;;;;;;;;;;;;;;;31.61;38.93;99658.91;4953622;29;825;-64
2022/08/08 07:01:09;;;;;;;;;;;;;;;31.75;37.35;99660.41;4952509;29;1258;-64
2022/08/08 07:03:51;;;;;;;;;;;;;;;31.55;37.85;99667.59;4953597;29;896;-64
2022/08/08 07:06:30;;;;;;;;;;;;;;;31.50;39.04;99663.56;4952186;29;1330;-64
2022/08/08 07:09:01;;;;;;;;;;;;;;;31.83;37.94;99672.66;4953467;29;832;-64
2022/08/08 07:14:51;;;;;;;;;;;;;;;32.47;37.43;99679.97;4952118;29;934;-64
2022/08/08 07:17:23;;;;;;;;;;;;;;;32.64;37.40;99673.84;4953385;29;827;-64
2022/08/08 07:19:54;;;;;;;;;;;;;;;32.85;36.67;99675.91;4953562;29;2023;-64
2022/08/08 07:35:06;;;;;;;;;;;;;;;33.59;34.09;99677.44;4934214;29;558;-65
2022/08/08 07:37:35;;;;;;;;;;;;;;;33.43;34.72;99683.09;4934106;29;856;-64
2022/08/08 07:40:25;;;;;;;;;;;;;;;33.52;34.24;99676.06;4933987;29;1915;-65
2022/08/08 07:42:54;;;;;;;;;;;;;;;33.63;33.54;99675.00;4934069;29;904;-65
2022/08/08 07:45:25;;;;;;;;;;;;;;;34.14;33.45;99679.91;4934076;29;886;-64
2022/08/08 07:47:57;;;;;;;;;;;;;;;33.99;32.35;99677.00;4933912;29;813;-65
2022/08/08 07:50:36;;;;;;;;;;;;;;;33.63;32.63;99677.84;4934020;29;951;-64
2022/08/08 07:53:08;;;;;;;;;;;;;;;33.81;32.38;99687.47;4933938;29;904;-65
2022/08/08 07:55:34;;;;;;;;;;;;;;;34.28;31.41;99675.53;4933947;29;861;-64
2022/08/08 07:58:01;;;;;;;;;;;;;;;34.27;31.34;99674.00;4933906;29;810;-64
2022/08/08 08:12:43;;;;;;;;;;;;;;;35.40;29.55;99670.03;4936061;29;694;-64
2022/08/08 08:15:11;;;;;;;;;;;;;;;35.33;29.29;99660.09;4937314;29;802;-65
2022/08/08 08:17:41;;;;;;;;;;;;;;;34.66;29.98;99665.44;4937208;29;837;-66
2022/08/08 08:20:13;;;;;;;;;;;;;;;34.70;30.00;99672.31;4937499;29;1953;-65
2022/08/08 08:22:40;;;;;;;;;;;;;;;34.98;29.66;99661.91;4937154;29;821;-65
2022/08/08 13:17:46;;;;;;;;;;;;;;;38.45;16.87;99558.44;5083922;27;1983441;-61
2022/08/08 13:20:14;;;;;;;;;;;;;;;38.19;17.07;99544.25;5150311;27;1245;-63
2022/08/08 13:22:42;;;;;;;;;;;;;;;38.39;17.59;99547.19;5150383;27;826;-62
2022/08/08 13:25:19;;;;;;;;;;;;;;;38.47;17.49;99544.91;5150159;27;1917;-62
2022/08/08 13:27:52;;;;;;;;;;;;;;;39.15;17.45;99539.13;5150569;27;865;-62
2022/08/08 13:30:21;;;;;;;;;;;;;;;39.24;16.92;99545.50;5150222;27;870;-62
2022/08/08 13:32:53;;;;;;;;;;;;;;;39.21;17.02;99544.59;5150043;27;874;-63
2022/08/08 13:35:24;;;;;;;;;;;;;;;38.82;17.13;99550.44;5148775;27;1276;-62
2022/08/08 13:37:50;;;;;;;;;;;;;;;38.16;17.32;99541.84;5149999;27;857;-61
2022/08/08 13:40:19;;;;;;;;;;;;;;;37.91;17.63;99536.28;5149988;27;814;-63
2022/08/08 13:43:00;;;;;;;;;;;;;;;38.01;18.76;99528.41;5149957;27;826;-62
2022/08/08 13:45:28;;;;;;;;;;;;;;;38.00;18.06;99535.53;5149801;27;1889;-62
2022/08/08 13:48:02;;;;;;;;;;;;;;;37.65;18.20;99534.97;5150079;27;869;-62
2022/08/08 13:50:33;;;;;;;;;;;;;;;37.54;18.21;99547.81;5149770;27;838;-62
2022/08/08 13:52:59;;;;;;;;;;;;;;;37.90;18.38;99535.53;5149800;27;889;-62
2022/08/08 13:55:26;;;;;;;;;;;;;;;37.87;17.35;99528.06;5148394;27;1349;-63
2022/08/08 14:10:09;;;;;;;;;;;;;;;37.42;18.19;99521.66;5149708;27;669;-63
2022/08/08 14:12:38;;;;;;;;;;;;;;;37.27;18.06;99519.00;5149443;27;901;-63
2022/08/08 14:15:06;;;;;;;;;;;;;;;37.15;18.23;99522.44;5149284;27;935;-62
2022/08/08 14:17:33;;;;;;;;;;;;;;;37.03;18.56;99517.78;5141262;27;1258;-63
2022/08/08 14:20:03;;;;;;;;;;;;;;;36.72;18.97;99515.28;5135438;27;831;-62
2022/08/08 14:22:29;;;;;;;;;;;;;;;36.66;18.89;99518.44;5135418;27;889;-63
2022/08/08 14:25:01;;;;;;;;;;;;;;;36.29;18.34;99515.34;5135261;27;1909;-61
2022/08/08 14:30:55;;;;;;;;;;;;;;;35.96;19.47;99509.69;5132140;27;1026;-62
2022/08/08 14:33:27;;;;;;;;;;;;;;;35.78;19.46;99513.88;5135210;27;866;-63
2022/08/08 14:35:59;;;;;;;;;;;;;;;35.43;19.76;99510.84;5133669;27;1205;-62
2022/08/08 14:44:52;;;;;;;;;;;;;;;34.08;21.06;99508.06;5135040;27;641;-65
2022/08/08 14:47:31;;;;;;;;;;;;;;;33.95;21.44;99502.53;5134871;27;1889;-65
2022/08/08 15:02:09;;;;;;;;;;;;;;;33.93;20.98;99508.06;5135007;27;692;-64
2022/08/08 15:04:36;;;;;;;;;;;;;;;33.70;21.11;99500.22;5134489;27;818;-65
2022/08/08 15:07:25;;;;;;;;;;;;;;;33.62;21.38;99510.16;5134605;27;1897;-66
2022/08/08 15:09:50;;;;;;;;;;;;;;;33.50;21.32;99501.13;5133113;27;1174;-65
2022/08/08 15:12:27;;;;;;;;;;;;;;;33.67;21.62;99489.13;5133131;27;1210;-66
2022/08/08 15:14:52;;;;;;;;;;;;;;;34.05;21.48;99496.97;5134339;27;1026;-65
2022/08/08 15:20:30;;;;;;;;;;;;;;;34.53;20.91;99497.09;5113017;27;1064;-66
2022/08/08 15:22:58;;;;;;;;;;;;;;;34.40;20.85;99489.47;5134275;27;810;-65
2022/08/08 15:25:34;;;;;;;;;;;;;;;34.26;21.22;99499.63;5134087;27;1913;-64
2022/08/08 15:28:00;;;;;;;;;;;;;;;34.31;21.13;99492.91;5113519;28;966;-64
2022/08/08 15:30:40;;;;;;;;;;;;;;;34.47;21.17;99490.78;5112523;28;936;-66
2022/08/08 15:33:07;;;;;;;;;;;;;;;34.49;20.68;99490.97;5113459;28;888;-65
2022/08/08 15:35:35;;;;;;;;;;;;;;;34.43;20.69;99481.81;5113442;28;807;-66
2022/08/08 15:38:01;;;;;;;;;;;;;;;34.40;20.69;99483.75;5113372;28;905;-66
2022/08/08 15:43:30;;;;;;;;;;;;;;;34.16;21.05;99487.97;5113292;28;665;-64
2022/08/08 15:46:02;;;;;;;;;;;;;;;33.54;21.50;99490.84;5111727;28;1894;-65
2022/08/08 15:48:28;;;;;;;;;;;;;;;33.17;22.47;99497.28;5113345;28;827;-66
2022/08/08 15:51:03;;;;;;;;;;;;;;;32.87;22.26;99498.69;5113656;28;854;-66
2022/08/08 15:56:44;;;;;;;;;;;;;;;32.20;23.30;99495.63;5070499;28;958;-65
2022/08/08 15:59:18;;;;;;;;;;;;;;;31.93;23.17;99502.28;5070187;28;799;-66
2022/08/08 16:01:44;;;;;;;;;;;;;;;31.82;23.62;99502.56;5070187;28;903;-66
2022/08/08 16:04:12;;;;;;;;;;;;;;;31.62;23.81;99498.41;5069996;28;873;-66
2022/08/08 16:06:46;;;;;;;;;;;;;;;31.44;24.25;99511.56;5070115;28;1942;-65
2022/08/08 16:09:12;;;;;;;;;;;;;;;31.25;24.71;99506.00;5069975;28;824;-66
2022/08/08 16:11:51;;;;;;;;;;;;;;;31.09;25.27;99502.22;5069952;28;942;-66
2022/08/08 16:14:17;;;;;;;;;;;;;;;30.96;25.50;99505.13;5069893;28;1000;-66
2022/08/08 16:16:56;;;;;;;;;;;;;;;30.85;25.46;99511.03;5069211;28;1364;-65
2022/08/08 16:19:22;;;;;;;;;;;;;;;30.77;25.31;99510.16;5070046;28;839;-66
2022/08/08 16:22:06;;;;;;;;;;;;;;;30.72;25.29;99509.72;5069791;28;894;-65
2022/08/08 16:24:35;;;;;;;;;;;;;;;30.55;25.75;99515.03;5069740;28;851;-66
2022/08/08 16:27:02;;;;;;;;;;;;;;;30.36;26.07;99522.94;5069665;28;1965;-66
2022/08/08 16:41:40;;;;;;;;;;;;;;;29.35;28.47;99514.75;5069506;28;709;-65
2022/08/08 16:44:15;;;;;;;;;;;;;;;29.19;28.77;99515.78;5069611;28;894;-66
2022/08/08 16:46:41;;;;;;;;;;;;;;;29.06;29.30;99519.28;5052571;28;1897;-66
2022/08/08 16:49:08;;;;;;;;;;;;;;;28.88;29.60;99529.38;5069442;28;847;-66
2022/08/08 16:51:41;;;;;;;;;;;;;;;28.66;30.12;99533.28;5069522;28;858;-66
2022/08/08 17:06:18;;;;;;;;;;;;;;;27.85;32.32;99533.78;5069218;28;1894;-65
2022/08/08 17:08:45;;;;;;;;;;;;;;;27.77;32.61;99535.66;5069298;28;819;-66
2022/08/08 17:11:12;;;;;;;;;;;;;;;27.65;33.15;99527.25;5069160;28;901;-64
2022/08/08 17:13:38;;;;;;;;;;;;;;;27.61;33.33;99538.13;5052416;28;1476;-65
2022/08/08 17:16:04;;;;;;;;;;;;;;;27.58;33.23;99529.88;5068250;28;1228;-64
2022/08/08 17:18:35;;;;;;;;;;;;;;;27.59;33.67;99537.06;5052329;28;1396;-64
2022/08/08 17:30:42;;;;;;;;;;;;;;;27.17;35.40;99544.84;5069047;28;692;-65
2022/08/08 17:33:29;;;;;;;;;;;;;;;27.10;35.48;99551.84;5009485;28;709;-65
2022/08/08 17:35:55;;;;;;;;;;;;;;;27.11;35.71;99556.19;5009470;28;1200;-65
2022/08/08 17:38:22;;;;;;;;;;;;;;;27.06;36.07;99557.78;5009574;28;906;-65
2022/08/08 17:40:49;;;;;;;;;;;;;;;26.89;36.70;99559.91;5009579;28;937;-65
2022/08/08 17:43:15;;;;;;;;;;;;;;;26.78;37.07;99565.63;5009416;28;824;-65
2022/08/08 17:45:49;;;;;;;;;;;;;;;26.76;37.53;99571.06;5009574;28;1922;-64
2022/08/08 17:48:18;;;;;;;;;;;;;;;26.78;37.24;99574.91;5009199;28;965;-65
2022/08/08 17:50:48;;;;;;;;;;;;;;;26.67;37.93;99577.75;5009277;28;792;-64
2022/08/08 17:53:30;;;;;;;;;;;;;;;26.59;38.04;99574.72;5011339;28;820;-65
2022/08/08 17:56:27;;;;;;;;;;;;;;;26.55;38.32;99585.50;5012818;28;927;-64
2022/08/08 17:58:54;;;;;;;;;;;;;;;26.63;38.67;99595.06;5012834;28;836;-64
2022/08/08 18:13:37;;;;;;;;;;;;;;;26.31;39.80;99607.94;5072303;28;681;-64
2022/08/08 18:16:06;;;;;;;;;;;;;;;26.20;40.23;99603.88;5054910;28;1236;-65
2022/08/08 18:18:33;;;;;;;;;;;;;;;26.19;39.95;99607.22;5072458;28;819;-65
2022/08/08 18:24:09;;;;;;;;;;;;;;;26.16;40.38;99614.69;5072131;28;622;-64
2022/08/08 18:26:36;;;;;;;;;;;;;;;26.17;40.37;99610.56;5071905;28;1968;-65
2022/08/08 18:29:11;;;;;;;;;;;;;;;26.17;40.21;99624.72;5071965;28;823;-66
2022/08/08 18:31:38;;;;;;;;;;;;;;;26.21;39.94;99622.38;5071798;28;906;-64
2022/08/08 18:34:05;;;;;;;;;;;;;;;26.12;39.94;99628.31;5054985;28;1219;-65
2022/08/08 18:36:31;;;;;;;;;;;;;;;26.10;39.93;99625.25;5071886;28;993;-65
2022/08/08 18:38:57;;;;;;;;;;;;;;;26.01;39.77;99620.59;5071762;28;823;-65
2022/08/08 18:41:46;;;;;;;;;;;;;;;26.06;39.34;99625.47;5071776;28;855;-67
2022/08/08 18:44:15;;;;;;;;;;;;;;;26.02;39.30;99621.38;5054908;28;1274;-65
2022/08/08 18:46:42;;;;;;;;;;;;;;;25.97;39.07;99624.97;5071582;28;1945;-65
2022/08/08 18:49:09;;;;;;;;;;;;;;;25.98;39.01;99624.44;5054801;28;1199;-65
2022/08/08 18:51:36;;;;;;;;;;;;;;;25.95;39.07;99624.72;5071606;28;839;-63
2022/08/08 18:54:03;;;;;;;;;;;;;;;25.89;39.22;99627.53;5071881;28;819;-65
2022/08/08 18:56:42;;;;;;;;;;;;;;;25.81;39.46;99629.31;5071480;28;875;-64
2022/08/08 18:59:30;;;;;;;;;;;;;;;25.76;39.53;99628.00;5071458;28;942;-64
2022/08/08 19:02:01;;;;;;;;;;;;;;;25.81;39.62;99630.06;5071343;28;827;-65
2022/08/08 19:04:28;;;;;;;;;;;;;;;25.78;39.70;99628.28;5071566;28;803;-65
2022/08/08 19:07:11;;;;;;;;;;;;;;;25.76;40.31;99633.66;5071364;28;1936;-65
2022/08/08 19:09:40;;;;;;;;;;;;;;;25.79;40.79;99626.22;5113981;28;827;-64
2022/08/08 19:12:09;;;;;;;;;;;;;;;25.75;41.24;99623.63;5113836;27;802;-65
2022/08/08 19:14:45;;;;;;;;;;;;;;;25.72;41.63;99632.38;5113052;28;1222;-64
2022/08/08 19:17:12;;;;;;;;;;;;;;;25.68;41.83;99633.38;5113722;28;1354;-63
2022/08/08 19:19:48;;;;;;;;;;;;;;;25.70;42.19;99638.53;5113906;28;811;-63
2022/08/08 19:22:27;;;;;;;;;;;;;;;25.77;41.99;99632.38;5113702;28;913;-64
2022/08/08 19:24:55;;;;;;;;;;;;;;;25.78;42.02;99630.34;5113615;28;878;-65
2022/08/08 19:27:22;;;;;;;;;;;;;;;25.66;42.25;99633.13;5112294;28;1926;-64
2022/08/08 19:29:48;;;;;;;;;;;;;;;25.61;42.07;99633.13;5113410;28;795;-65
2022/08/08 19:32:15;;;;;;;;;;;;;;;25.51;41.96;99626.16;5113577;28;883;-65
2022/08/08 19:34:42;;;;;;;;;;;;;;;25.43;42.09;99634.34;5112120;28;1218;-66
2022/08/08 19:37:09;;;;;;;;;;;;;;;25.35;41.93;99630.47;5112025;28;1432;-64
2022/08/08 19:39:36;;;;;;;;;;;;;;;25.34;41.36;99626.88;5113384;28;802;-64
2022/08/08 19:42:06;;;;;;;;;;;;;;;25.38;40.73;99624.59;5113332;28;803;-66
2022/08/08 19:44:34;;;;;;;;;;;;;;;25.54;39.81;99631.59;5113205;28;855;-65
2022/08/08 19:47:02;;;;;;;;;;;;;;;25.61;39.65;99624.66;5113109;28;1881;-65
2022/08/08 19:49:29;;;;;;;;;;;;;;;25.57;39.62;99624.88;5113185;28;882;-65
2022/08/08 19:51:56;;;;;;;;;;;;;;;25.54;39.34;99622.31;5111711;28;1250;-65
2022/08/08 19:54:24;;;;;;;;;;;;;;;25.59;39.03;99630.81;5113113;27;831;-65
2022/08/08 19:56:51;;;;;;;;;;;;;;;25.63;38.92;99634.16;5112956;28;815;-65
2022/08/08 19:59:18;;;;;;;;;;;;;;;25.51;39.54;99635.41;5111512;28;1305;-64
2022/08/08 20:01:44;;;;;;;;;;;;;;;25.39;39.49;99633.84;5112907;28;799;-64
2022/08/08 20:04:11;;;;;;;;;;;;;;;25.27;40.06;99633.81;5111533;28;1340;-64
2022/08/08 20:06:38;;;;;;;;;;;;;;;25.27;39.40;99630.22;5112785;28;1889;-65
2022/08/08 20:09:05;;;;;;;;;;;;;;;25.34;39.63;99632.53;5112833;28;827;-65
2022/08/08 20:11:32;;;;;;;;;;;;;;;25.25;40.13;99629.94;5112669;28;859;-65
2022/08/08 20:13:59;;;;;;;;;;;;;;;25.17;40.04;99628.84;5112705;28;911;-65
2022/08/08 20:16:25;;;;;;;;;;;;;;;25.16;40.02;99630.16;5111719;28;1388;-65
2022/08/08 20:18:54;;;;;;;;;;;;;;;25.18;39.96;99630.41;5112617;28;858;-65
2022/08/08 20:21:21;;;;;;;;;;;;;;;25.14;39.90;99627.06;5112468;28;1099;-65
2022/08/08 20:23:48;;;;;;;;;;;;;;;25.11;40.18;99628.06;5112475;28;815;-65
2022/08/08 20:26:15;;;;;;;;;;;;;;;24.94;40.99;99625.91;5111086;28;1962;-65
2022/08/08 20:28:42;;;;;;;;;;;;;;;24.71;41.43;99629.91;5110985;28;1285;-66
2022/08/08 20:31:10;;;;;;;;;;;;;;;24.55;41.90;99625.72;5111052;28;1253;-65
2022/08/08 20:33:36;;;;;;;;;;;;;;;24.42;42.19;99620.47;5112377;28;830;-66
2022/08/08 20:36:03;;;;;;;;;;;;;;;24.33;42.54;99620.66;5112292;28;903;-65
2022/08/08 20:38:30;;;;;;;;;;;;;;;24.24;42.94;99624.44;5110902;28;1206;-65
2022/08/08 20:40:58;;;;;;;;;;;;;;;24.16;42.86;99618.47;5112290;28;826;-65
2022/08/08 20:43:24;;;;;;;;;;;;;;;24.17;42.60;99607.94;5112384;28;873;-66
2022/08/08 20:45:52;;;;;;;;;;;;;;;24.29;41.73;99620.88;5112426;28;1889;-65
2022/08/08 20:48:18;;;;;;;;;;;;;;;24.28;42.05;99618.56;5112111;28;874;-65
2022/08/08 20:50:45;;;;;;;;;;;;;;;24.23;41.83;99618.00;5110828;28;1321;-66
2022/08/08 20:53:12;;;;;;;;;;;;;;;24.29;41.14;99612.41;5112041;28;847;-65
2022/08/08 20:55:38;;;;;;;;;;;;;;;24.31;40.96;99620.38;5110730;28;1293;-65
2022/08/08 20:58:04;;;;;;;;;;;;;;;24.51;39.35;99613.88;5111981;28;890;-64
2022/08/08 21:00:31;;;;;;;;;;;;;;;24.80;38.96;99607.88;5111942;28;909;-65
2022/08/08 21:02:58;;;;;;;;;;;;;;;24.73;39.22;99604.75;5111964;28;810;-65
2022/08/08 21:05:25;;;;;;;;;;;;;;;24.61;39.32;99604.69;5111827;28;1955;-65
2022/08/08 21:07:52;;;;;;;;;;;;;;;24.56;39.25;99605.44;5111920;28;905;-65
2022/08/08 21:10:19;;;;;;;;;;;;;;;24.52;39.38;99615.44;5111881;28;893;-65
2022/08/08 21:12:46;;;;;;;;;;;;;;;24.50;39.10;99610.28;5111961;28;895;-65
2022/08/08 21:15:13;;;;;;;;;;;;;;;24.54;38.64;99607.22;5111857;28;907;-65
2022/08/08 21:17:41;;;;;;;;;;;;;;;24.54;38.78;99602.34;5111595;28;1339;-66
2022/08/08 21:20:08;;;;;;;;;;;;;;;24.48;39.32;99603.56;5110436;28;1306;-65
2022/08/08 21:22:35;;;;;;;;;;;;;;;24.37;39.46;99607.84;5111780;28;875;-65
2022/08/08 21:25:02;;;;;;;;;;;;;;;24.32;39.34;99617.03;5110442;28;1206;-65
2022/08/08 21:27:29;;;;;;;;;;;;;;;24.30;39.39;99608.28;5112740;28;2000;-65
2022/08/08 21:29:57;;;;;;;;;;;;;;;24.25;39.51;99604.16;5114495;28;1301;-66
2022/08/08 21:32:54;;;;;;;;;;;;;;;24.23;39.39;99609.53;5115957;28;854;-65
2022/08/08 21:35:26;;;;;;;;;;;;;;;24.18;39.13;99609.50;5115751;28;893;-65
2022/08/08 21:37:53;;;;;;;;;;;;;;;24.21;39.08;99600.03;5115820;28;811;-64
2022/08/08 21:40:18;;;;;;;;;;;;;;;24.25;38.69;99601.34;5115708;28;824;-65
2022/08/08 21:54:58;;;;;;;;;;;;;;;23.99;39.42;99586.53;5115770;28;657;-66
2022/08/08 21:57:25;;;;;;;;;;;;;;;23.97;40.21;99591.91;5113912;28;1375;-65
2022/08/08 21:59:53;;;;;;;;;;;;;;;23.95;40.44;99581.09;5115445;28;823;-65
2022/08/08 22:02:21;;;;;;;;;;;;;;;23.96;40.88;99591.13;5113998;28;1369;-66
2022/08/08 22:04:48;;;;;;;;;;;;;;;23.94;40.98;99590.84;5113866;28;1202;-65
2022/08/08 22:07:14;;;;;;;;;;;;;;;23.89;41.32;99585.91;5115112;28;1949;-66
2022/08/08 22:09:42;;;;;;;;;;;;;;;23.87;41.62;99588.47;5113802;28;1301;-66
2022/08/08 22:12:08;;;;;;;;;;;;;;;23.84;41.70;99581.00;5115082;28;812;-65
2022/08/08 22:14:35;;;;;;;;;;;;;;;23.86;42.18;99574.88;5115051;28;890;-66
2022/08/08 22:17:02;;;;;;;;;;;;;;;23.88;42.49;99580.78;5113226;28;1272;-66
2022/08/08 22:19:29;;;;;;;;;;;;;;;23.83;42.79;99576.63;5115012;28;819;-66
2022/08/08 22:21:56;;;;;;;;;;;;;;;23.79;43.08;99571.22;5114961;28;914;-65
2022/08/08 22:24:22;;;;;;;;;;;;;;;23.73;43.69;99576.00;5114812;28;843;-66
2022/08/08 22:26:50;;;;;;;;;;;;;;;23.72;43.88;99580.09;5114800;28;1906;-66
2022/08/08 22:29:17;;;;;;;;;;;;;;;23.72;44.27;99577.28;5114770;28;838;-65
2022/08/08 22:31:44;;;;;;;;;;;;;;;23.74;44.51;99576.78;5113436;28;1403;-65
2022/08/08 22:34:14;;;;;;;;;;;;;;;23.75;44.60;99573.47;5113049;28;1194;-64
2022/08/08 22:36:45;;;;;;;;;;;;;;;23.83;44.77;99573.81;5114965;28;834;-66
2022/08/08 22:39:12;;;;;;;;;;;;;;;23.84;45.04;99578.19;5114143;28;865;-65
2022/08/08 22:41:39;;;;;;;;;;;;;;;23.77;45.26;99573.78;5114466;28;878;-65
2022/08/08 22:44:18;;;;;;;;;;;;;;;23.72;45.33;99576.50;5114387;28;1267;-66
2022/08/08 22:46:45;;;;;;;;;;;;;;;23.64;45.56;99579.78;5113024;28;1877;-66
2022/08/08 22:49:13;;;;;;;;;;;;;;;23.54;46.16;99572.75;5112972;28;1377;-67
2022/08/08 22:51:39;;;;;;;;;;;;;;;23.48;46.12;99566.28;5113028;28;1146;-65
2022/08/08 22:54:07;;;;;;;;;;;;;;;23.47;46.30;99564.75;5112953;28;1260;-66
2022/08/08 22:56:34;;;;;;;;;;;;;;;23.45;46.58;99564.47;5112817;28;1324;-65
2022/08/08 22:59:01;;;;;;;;;;;;;;;23.41;46.67;99561.88;5114227;28;862;-65
2022/08/08 23:01:28;;;;;;;;;;;;;;;23.37;47.13;99555.66;5114256;28;807;-65
2022/08/08 23:03:56;;;;;;;;;;;;;;;23.31;47.38;99556.88;5114142;28;885;-66
2022/08/08 23:06:26;;;;;;;;;;;;;;;23.28;47.49;99564.28;5112592;28;1885;-65
2022/08/08 23:08:53;;;;;;;;;;;;;;;23.28;47.51;99569.94;5112680;28;1150;-66